sensor_id;sensor_type;location;lat;lon;timestamp;P1;durP1;ratioP1;P2;durP2;ratioP2
61391;SDS011;47261;52.892;5.738;2023-05-31T00:01:47;8.70;;;2.80;;
61391;SDS011;47261;52.892;5.738;2023-05-31T00:04:12;8.13;;;3.07;;
61391;SDS011;47261;52.892;5.738;2023-05-31T00:06:38;11.93;;;2.47;;
61391;SDS011;47261;52.892;5.738;2023-05-31T00:09:04;7.77;;;3.00;;
61391;SDS011;47261;52.892;5.738;2023-05-31T00:11:29;13.47;;;2.70;;
61391;SDS011;47261;52.892;5.738;2023-05-31T00:13:55;9.53;;;3.00;;
61391;SDS011;47261;52.892;5.738;2023-05-31T00:16:20;10.70;;;2.50;;
61391;SDS011;47261;52.892;5.738;2023-05-31T00:18:46;9.82;;;2.92;;
61391;SDS011;47261;52.892;5.738;2023-05-31T00:21:12;9.53;;;2.57;;
61391;SDS011;47261;52.892;5.738;2023-05-31T00:23:37;9.27;;;2.95;;
61391;SDS011;47261;52.892;5.738;2023-05-31T00:26:03;8.10;;;2.80;;
61391;SDS011;47261;52.892;5.738;2023-05-31T00:28:29;9.18;;;3.25;;
61391;SDS011;47261;52.892;5.738;2023-05-31T00:30:54;8.67;;;3.10;;
61391;SDS011;47261;52.892;5.738;2023-05-31T00:33:20;10.40;;;2.92;;
61391;SDS011;47261;52.892;5.738;2023-05-31T00:35:46;9.27;;;2.93;;
61391;SDS011;47261;52.892;5.738;2023-05-31T00:38:11;9.23;;;2.90;;
61391;SDS011;47261;52.892;5.738;2023-05-31T00:40:38;10.80;;;3.27;;
61391;SDS011;47261;52.892;5.738;2023-05-31T00:43:04;8.23;;;2.92;;
61391;SDS011;47261;52.892;5.738;2023-05-31T00:45:30;10.67;;;2.90;;
61391;SDS011;47261;52.892;5.738;2023-05-31T00:47:57;7.82;;;2.63;;
61391;SDS011;47261;52.892;5.738;2023-05-31T00:50:25;11.82;;;2.63;;
61391;SDS011;47261;52.892;5.738;2023-05-31T00:52:51;7.72;;;2.65;;
61391;SDS011;47261;52.892;5.738;2023-05-31T00:55:19;9.93;;;2.80;;
61391;SDS011;47261;52.892;5.738;2023-05-31T00:57:45;12.10;;;2.70;;
61391;SDS011;47261;52.892;5.738;2023-05-31T01:00:11;9.02;;;2.60;;
61391;SDS011;47261;52.892;5.738;2023-05-31T01:02:38;9.82;;;3.42;;
61391;SDS011;47261;52.892;5.738;2023-05-31T01:05:04;8.60;;;2.92;;
61391;SDS011;47261;52.892;5.738;2023-05-31T01:07:30;10.63;;;2.87;;
61391;SDS011;47261;52.892;5.738;2023-05-31T01:09:56;11.65;;;3.17;;
61391;SDS011;47261;52.892;5.738;2023-05-31T01:12:32;10.20;;;3.20;;
61391;SDS011;47261;52.892;5.738;2023-05-31T01:18:12;10.07;;;2.95;;
61391;SDS011;47261;52.892;5.738;2023-05-31T01:20:34;9.75;;;3.17;;
61391;SDS011;47261;52.892;5.738;2023-05-31T01:28:50;13.23;;;3.23;;
61391;SDS011;47261;52.892;5.738;2023-05-31T01:31:20;9.13;;;3.60;;
61391;SDS011;47261;52.892;5.738;2023-05-31T01:33:47;12.27;;;3.40;;
61391;SDS011;47261;52.892;5.738;2023-05-31T01:36:14;14.85;;;4.20;;
61391;SDS011;47261;52.892;5.738;2023-05-31T01:38:39;8.07;;;2.70;;
61391;SDS011;47261;52.892;5.738;2023-05-31T01:41:05;10.32;;;2.88;;
61391;SDS011;47261;52.892;5.738;2023-05-31T01:43:32;8.63;;;2.97;;
61391;SDS011;47261;52.892;5.738;2023-05-31T01:45:59;7.13;;;2.40;;
61391;SDS011;47261;52.892;5.738;2023-05-31T01:48:25;9.23;;;3.10;;
61391;SDS011;47261;52.892;5.738;2023-05-31T01:50:52;11.88;;;3.03;;
61391;SDS011;47261;52.892;5.738;2023-05-31T01:53:19;9.88;;;2.78;;
61391;SDS011;47261;52.892;5.738;2023-05-31T01:55:45;12.70;;;3.37;;
61391;SDS011;47261;52.892;5.738;2023-05-31T01:58:11;10.25;;;3.17;;
61391;SDS011;47261;52.892;5.738;2023-05-31T02:00:38;13.73;;;3.60;;
61391;SDS011;47261;52.892;5.738;2023-05-31T02:03:05;10.85;;;3.22;;
61391;SDS011;47261;52.892;5.738;2023-05-31T02:05:31;8.97;;;2.67;;
61391;SDS011;47261;52.892;5.738;2023-05-31T02:07:56;8.25;;;2.50;;
61391;SDS011;47261;52.892;5.738;2023-05-31T02:10:22;12.10;;;2.90;;
61391;SDS011;47261;52.892;5.738;2023-05-31T02:12:48;13.95;;;2.88;;
61391;SDS011;47261;52.892;5.738;2023-05-31T02:15:18;12.20;;;3.57;;
61391;SDS011;47261;52.892;5.738;2023-05-31T02:17:44;10.13;;;2.97;;
61391;SDS011;47261;52.892;5.738;2023-05-31T02:20:14;11.07;;;3.55;;
61391;SDS011;47261;52.892;5.738;2023-05-31T02:22:41;10.07;;;3.35;;
61391;SDS011;47261;52.892;5.738;2023-05-31T02:25:07;10.38;;;3.42;;
61391;SDS011;47261;52.892;5.738;2023-05-31T02:27:35;14.63;;;3.67;;
61391;SDS011;47261;52.892;5.738;2023-05-31T02:30:01;19.35;;;3.80;;
61391;SDS011;47261;52.892;5.738;2023-05-31T02:32:27;12.10;;;4.05;;
61391;SDS011;47261;52.892;5.738;2023-05-31T02:34:53;15.90;;;4.00;;
61391;SDS011;47261;52.892;5.738;2023-05-31T02:37:18;18.55;;;4.30;;
61391;SDS011;47261;52.892;5.738;2023-05-31T02:39:44;17.63;;;4.40;;
61391;SDS011;47261;52.892;5.738;2023-05-31T02:42:10;13.85;;;4.38;;
61391;SDS011;47261;52.892;5.738;2023-05-31T02:44:35;16.13;;;4.10;;
61391;SDS011;47261;52.892;5.738;2023-05-31T02:47:01;16.30;;;4.03;;
61391;SDS011;47261;52.892;5.738;2023-05-31T02:49:26;21.05;;;4.22;;
61391;SDS011;47261;52.892;5.738;2023-05-31T02:51:52;16.43;;;4.67;;
61391;SDS011;47261;52.892;5.738;2023-05-31T02:54:18;20.05;;;4.68;;
61391;SDS011;47261;52.892;5.738;2023-05-31T02:56:43;18.63;;;4.50;;
61391;SDS011;47261;52.892;5.738;2023-05-31T02:59:09;16.30;;;4.60;;
61391;SDS011;47261;52.892;5.738;2023-05-31T03:01:35;13.17;;;4.50;;
61391;SDS011;47261;52.892;5.738;2023-05-31T03:04:01;18.65;;;5.10;;
61391;SDS011;47261;52.892;5.738;2023-05-31T03:06:27;20.02;;;4.88;;
61391;SDS011;47261;52.892;5.738;2023-05-31T03:08:53;15.30;;;4.30;;
61391;SDS011;47261;52.892;5.738;2023-05-31T03:11:19;17.23;;;4.72;;
61391;SDS011;47261;52.892;5.738;2023-05-31T03:13:44;18.97;;;5.23;;
61391;SDS011;47261;52.892;5.738;2023-05-31T03:16:10;17.35;;;4.55;;
61391;SDS011;47261;52.892;5.738;2023-05-31T03:18:36;17.53;;;4.90;;
61391;SDS011;47261;52.892;5.738;2023-05-31T03:21:02;15.85;;;4.78;;
61391;SDS011;47261;52.892;5.738;2023-05-31T03:23:28;13.65;;;4.72;;
61391;SDS011;47261;52.892;5.738;2023-05-31T03:25:53;16.30;;;4.30;;
61391;SDS011;47261;52.892;5.738;2023-05-31T03:28:19;14.67;;;3.60;;
61391;SDS011;47261;52.892;5.738;2023-05-31T03:30:45;13.10;;;4.00;;
61391;SDS011;47261;52.892;5.738;2023-05-31T03:33:10;11.90;;;3.87;;
61391;SDS011;47261;52.892;5.738;2023-05-31T03:35:36;17.30;;;4.25;;
61391;SDS011;47261;52.892;5.738;2023-05-31T03:38:02;16.90;;;4.50;;
61391;SDS011;47261;52.892;5.738;2023-05-31T03:40:27;15.68;;;3.78;;
61391;SDS011;47261;52.892;5.738;2023-05-31T03:42:53;18.27;;;4.03;;
61391;SDS011;47261;52.892;5.738;2023-05-31T03:45:18;17.23;;;4.47;;
61391;SDS011;47261;52.892;5.738;2023-05-31T03:47:44;14.65;;;4.18;;
61391;SDS011;47261;52.892;5.738;2023-05-31T03:50:10;15.73;;;3.92;;
61391;SDS011;47261;52.892;5.738;2023-05-31T03:52:36;17.33;;;4.43;;
61391;SDS011;47261;52.892;5.738;2023-05-31T03:55:05;17.47;;;4.43;;
61391;SDS011;47261;52.892;5.738;2023-05-31T03:57:30;15.10;;;4.65;;
61391;SDS011;47261;52.892;5.738;2023-05-31T03:59:56;21.50;;;5.30;;
61391;SDS011;47261;52.892;5.738;2023-05-31T04:02:22;14.75;;;4.55;;
61391;SDS011;47261;52.892;5.738;2023-05-31T04:04:47;20.10;;;4.67;;
61391;SDS011;47261;52.892;5.738;2023-05-31T04:07:13;19.63;;;4.50;;
61391;SDS011;47261;52.892;5.738;2023-05-31T04:09:38;15.90;;;4.80;;
61391;SDS011;47261;52.892;5.738;2023-05-31T04:12:04;14.27;;;4.40;;
61391;SDS011;47261;52.892;5.738;2023-05-31T04:14:31;17.75;;;4.70;;
61391;SDS011;47261;52.892;5.738;2023-05-31T04:16:56;14.38;;;4.60;;
61391;SDS011;47261;52.892;5.738;2023-05-31T04:19:22;17.33;;;4.60;;
61391;SDS011;47261;52.892;5.738;2023-05-31T04:21:47;16.13;;;4.90;;
61391;SDS011;47261;52.892;5.738;2023-05-31T04:24:13;15.77;;;4.63;;
61391;SDS011;47261;52.892;5.738;2023-05-31T04:26:39;17.10;;;5.17;;
61391;SDS011;47261;52.892;5.738;2023-05-31T04:29:04;17.05;;;5.47;;
61391;SDS011;47261;52.892;5.738;2023-05-31T04:31:30;13.93;;;5.27;;
61391;SDS011;47261;52.892;5.738;2023-05-31T04:33:57;19.58;;;5.47;;
61391;SDS011;47261;52.892;5.738;2023-05-31T04:36:25;14.10;;;5.32;;
61391;SDS011;47261;52.892;5.738;2023-05-31T04:38:51;16.47;;;5.40;;
61391;SDS011;47261;52.892;5.738;2023-05-31T04:41:20;20.40;;;5.22;;
61391;SDS011;47261;52.892;5.738;2023-05-31T04:43:49;21.80;;;5.38;;
61391;SDS011;47261;52.892;5.738;2023-05-31T04:46:15;20.63;;;5.67;;
61391;SDS011;47261;52.892;5.738;2023-05-31T04:48:41;20.85;;;5.97;;
61391;SDS011;47261;52.892;5.738;2023-05-31T04:51:07;23.80;;;5.78;;
61391;SDS011;47261;52.892;5.738;2023-05-31T04:53:32;16.23;;;4.87;;
61391;SDS011;47261;52.892;5.738;2023-05-31T04:55:58;24.00;;;4.97;;
61391;SDS011;47261;52.892;5.738;2023-05-31T04:58:29;22.08;;;5.78;;
61391;SDS011;47261;52.892;5.738;2023-05-31T05:00:56;24.92;;;5.93;;
61391;SDS011;47261;52.892;5.738;2023-05-31T05:03:22;25.43;;;6.27;;
61391;SDS011;47261;52.892;5.738;2023-05-31T05:05:49;20.15;;;5.97;;
61391;SDS011;47261;52.892;5.738;2023-05-31T05:08:15;15.75;;;5.70;;
61391;SDS011;47261;52.892;5.738;2023-05-31T05:10:41;16.40;;;6.17;;
61391;SDS011;47261;52.892;5.738;2023-05-31T05:13:07;19.52;;;5.45;;
61391;SDS011;47261;52.892;5.738;2023-05-31T05:15:33;20.53;;;5.87;;
61391;SDS011;47261;52.892;5.738;2023-05-31T05:17:58;20.75;;;5.82;;
61391;SDS011;47261;52.892;5.738;2023-05-31T05:20:24;20.60;;;6.20;;
61391;SDS011;47261;52.892;5.738;2023-05-31T05:22:50;15.82;;;5.63;;
61391;SDS011;47261;52.892;5.738;2023-05-31T05:25:19;22.00;;;5.83;;
61391;SDS011;47261;52.892;5.738;2023-05-31T05:27:46;17.45;;;5.72;;
61391;SDS011;47261;52.892;5.738;2023-05-31T05:30:12;14.75;;;5.07;;
61391;SDS011;47261;52.892;5.738;2023-05-31T05:32:38;14.23;;;4.90;;
61391;SDS011;47261;52.892;5.738;2023-05-31T05:35:04;13.93;;;4.80;;
61391;SDS011;47261;52.892;5.738;2023-05-31T05:37:31;17.20;;;4.95;;
61391;SDS011;47261;52.892;5.738;2023-05-31T05:39:57;17.48;;;4.82;;
61391;SDS011;47261;52.892;5.738;2023-05-31T05:42:24;12.77;;;4.80;;
61391;SDS011;47261;52.892;5.738;2023-05-31T05:44:50;16.45;;;4.82;;
61391;SDS011;47261;52.892;5.738;2023-05-31T05:47:16;16.23;;;4.68;;
61391;SDS011;47261;52.892;5.738;2023-05-31T05:49:42;13.77;;;4.43;;
61391;SDS011;47261;52.892;5.738;2023-05-31T05:52:07;17.17;;;5.10;;
61391;SDS011;47261;52.892;5.738;2023-05-31T05:54:33;14.45;;;5.28;;
61391;SDS011;47261;52.892;5.738;2023-05-31T05:56:58;15.63;;;5.33;;
61391;SDS011;47261;52.892;5.738;2023-05-31T05:59:24;18.45;;;5.57;;
61391;SDS011;47261;52.892;5.738;2023-05-31T06:01:50;13.67;;;4.80;;
61391;SDS011;47261;52.892;5.738;2023-05-31T06:04:16;13.38;;;5.30;;
61391;SDS011;47261;52.892;5.738;2023-05-31T06:06:41;13.50;;;5.40;;
61391;SDS011;47261;52.892;5.738;2023-05-31T06:09:07;14.48;;;6.00;;
61391;SDS011;47261;52.892;5.738;2023-05-31T06:11:32;17.67;;;5.27;;
61391;SDS011;47261;52.892;5.738;2023-05-31T06:13:58;13.23;;;5.77;;
61391;SDS011;47261;52.892;5.738;2023-05-31T06:16:24;17.43;;;6.37;;
61391;SDS011;47261;52.892;5.738;2023-05-31T06:18:49;15.23;;;5.32;;
61391;SDS011;47261;52.892;5.738;2023-05-31T06:21:15;15.13;;;6.30;;
61391;SDS011;47261;52.892;5.738;2023-05-31T06:23:41;14.48;;;5.50;;
61391;SDS011;47261;52.892;5.738;2023-05-31T06:26:07;14.73;;;5.73;;
61391;SDS011;47261;52.892;5.738;2023-05-31T06:28:32;14.70;;;5.78;;
61391;SDS011;47261;52.892;5.738;2023-05-31T06:30:59;16.17;;;5.97;;
61391;SDS011;47261;52.892;5.738;2023-05-31T06:33:25;15.88;;;5.40;;
61391;SDS011;47261;52.892;5.738;2023-05-31T06:35:51;14.73;;;6.33;;
61391;SDS011;47261;52.892;5.738;2023-05-31T06:38:17;14.18;;;5.60;;
61391;SDS011;47261;52.892;5.738;2023-05-31T06:40:43;14.27;;;6.00;;
61391;SDS011;47261;52.892;5.738;2023-05-31T06:43:09;13.10;;;6.05;;
61391;SDS011;47261;52.892;5.738;2023-05-31T06:45:38;16.08;;;5.85;;
61391;SDS011;47261;52.892;5.738;2023-05-31T06:48:06;13.27;;;5.45;;
61391;SDS011;47261;52.892;5.738;2023-05-31T06:50:34;13.35;;;5.22;;
61391;SDS011;47261;52.892;5.738;2023-05-31T06:52:59;12.47;;;5.47;;
61391;SDS011;47261;52.892;5.738;2023-05-31T06:55:25;12.98;;;5.35;;
61391;SDS011;47261;52.892;5.738;2023-05-31T06:57:51;15.13;;;5.40;;
61391;SDS011;47261;52.892;5.738;2023-05-31T07:00:17;15.60;;;4.50;;
61391;SDS011;47261;52.892;5.738;2023-05-31T07:02:43;13.25;;;5.35;;
61391;SDS011;47261;52.892;5.738;2023-05-31T07:05:09;17.63;;;5.57;;
61391;SDS011;47261;52.892;5.738;2023-05-31T07:07:34;16.50;;;5.63;;
61391;SDS011;47261;52.892;5.738;2023-05-31T07:10:01;12.73;;;5.20;;
61391;SDS011;47261;52.892;5.738;2023-05-31T07:12:27;14.45;;;5.47;;
61391;SDS011;47261;52.892;5.738;2023-05-31T07:14:52;11.27;;;4.60;;
61391;SDS011;47261;52.892;5.738;2023-05-31T07:17:18;13.33;;;5.67;;
61391;SDS011;47261;52.892;5.738;2023-05-31T07:19:45;13.88;;;5.43;;
61391;SDS011;47261;52.892;5.738;2023-05-31T07:22:13;15.80;;;5.38;;
61391;SDS011;47261;52.892;5.738;2023-05-31T07:24:39;12.60;;;5.43;;
61391;SDS011;47261;52.892;5.738;2023-05-31T07:27:06;13.70;;;5.20;;
61391;SDS011;47261;52.892;5.738;2023-05-31T07:29:32;14.93;;;5.05;;
61391;SDS011;47261;52.892;5.738;2023-05-31T07:31:58;15.20;;;5.60;;
61391;SDS011;47261;52.892;5.738;2023-05-31T07:34:24;15.37;;;5.47;;
61391;SDS011;47261;52.892;5.738;2023-05-31T07:36:49;12.25;;;5.30;;
61391;SDS011;47261;52.892;5.738;2023-05-31T07:39:15;12.30;;;5.20;;
61391;SDS011;47261;52.892;5.738;2023-05-31T07:41:41;12.93;;;5.13;;
61391;SDS011;47261;52.892;5.738;2023-05-31T07:44:08;14.70;;;5.60;;
61391;SDS011;47261;52.892;5.738;2023-05-31T07:46:34;11.90;;;5.22;;
61391;SDS011;47261;52.892;5.738;2023-05-31T07:49:01;17.17;;;6.20;;
61391;SDS011;47261;52.892;5.738;2023-05-31T07:51:30;12.32;;;5.13;;
61391;SDS011;47261;52.892;5.738;2023-05-31T07:53:57;13.93;;;5.22;;
61391;SDS011;47261;52.892;5.738;2023-05-31T07:56:22;15.83;;;5.47;;
61391;SDS011;47261;52.892;5.738;2023-05-31T07:58:49;14.95;;;5.43;;
61391;SDS011;47261;52.892;5.738;2023-05-31T08:01:14;12.67;;;4.97;;
61391;SDS011;47261;52.892;5.738;2023-05-31T08:03:40;16.93;;;5.80;;
61391;SDS011;47261;52.892;5.738;2023-05-31T08:06:06;13.88;;;5.60;;
61391;SDS011;47261;52.892;5.738;2023-05-31T08:08:32;14.43;;;5.73;;
61391;SDS011;47261;52.892;5.738;2023-05-31T08:10:58;14.75;;;5.70;;
61391;SDS011;47261;52.892;5.738;2023-05-31T08:13:24;14.30;;;5.72;;
61391;SDS011;47261;52.892;5.738;2023-05-31T08:15:50;14.60;;;6.00;;
61391;SDS011;47261;52.892;5.738;2023-05-31T08:18:17;13.00;;;5.72;;
61391;SDS011;47261;52.892;5.738;2023-05-31T08:20:43;15.02;;;5.82;;
61391;SDS011;47261;52.892;5.738;2023-05-31T08:23:08;17.73;;;6.05;;
61391;SDS011;47261;52.892;5.738;2023-05-31T08:25:41;19.07;;;6.20;;
61391;SDS011;47261;52.892;5.738;2023-05-31T08:28:07;14.55;;;5.53;;
61391;SDS011;47261;52.892;5.738;2023-05-31T08:30:32;16.53;;;5.93;;
61391;SDS011;47261;52.892;5.738;2023-05-31T08:32:58;13.98;;;5.03;;
61391;SDS011;47261;52.892;5.738;2023-05-31T08:35:24;15.50;;;5.53;;
61391;SDS011;47261;52.892;5.738;2023-05-31T08:37:49;13.55;;;5.55;;
61391;SDS011;47261;52.892;5.738;2023-05-31T08:40:15;18.13;;;5.77;;
61391;SDS011;47261;52.892;5.738;2023-05-31T08:42:50;17.10;;;6.53;;
61391;SDS011;47261;52.892;5.738;2023-05-31T08:45:19;16.33;;;5.73;;
61391;SDS011;47261;52.892;5.738;2023-05-31T08:47:47;13.07;;;5.70;;
61391;SDS011;47261;52.892;5.738;2023-05-31T08:50:36;13.18;;;5.22;;
61391;SDS011;47261;52.892;5.738;2023-05-31T08:53:03;14.27;;;5.65;;
61391;SDS011;47261;52.892;5.738;2023-05-31T08:55:30;14.30;;;5.75;;
61391;SDS011;47261;52.892;5.738;2023-05-31T08:57:57;14.80;;;5.63;;
61391;SDS011;47261;52.892;5.738;2023-05-31T09:00:23;12.68;;;5.43;;
61391;SDS011;47261;52.892;5.738;2023-05-31T09:02:50;14.80;;;6.40;;
61391;SDS011;47261;52.892;5.738;2023-05-31T09:05:16;15.05;;;5.35;;
61391;SDS011;47261;52.892;5.738;2023-05-31T09:07:42;13.68;;;5.18;;
61391;SDS011;47261;52.892;5.738;2023-05-31T09:10:08;14.37;;;5.63;;
61391;SDS011;47261;52.892;5.738;2023-05-31T09:12:36;13.85;;;5.53;;
61391;SDS011;47261;52.892;5.738;2023-05-31T09:15:01;16.20;;;5.78;;
61391;SDS011;47261;52.892;5.738;2023-05-31T09:17:28;11.02;;;5.43;;
61391;SDS011;47261;52.892;5.738;2023-05-31T09:19:56;13.23;;;4.97;;
61391;SDS011;47261;52.892;5.738;2023-05-31T09:22:22;16.50;;;6.00;;
61391;SDS011;47261;52.892;5.738;2023-05-31T09:24:57;15.63;;;6.43;;
61391;SDS011;47261;52.892;5.738;2023-05-31T09:27:25;13.15;;;4.90;;
61391;SDS011;47261;52.892;5.738;2023-05-31T09:29:52;12.53;;;5.20;;
61391;SDS011;47261;52.892;5.738;2023-05-31T09:32:18;13.77;;;5.93;;
61391;SDS011;47261;52.892;5.738;2023-05-31T09:34:45;13.75;;;5.47;;
61391;SDS011;47261;52.892;5.738;2023-05-31T09:37:29;13.40;;;5.00;;
61391;SDS011;47261;52.892;5.738;2023-05-31T09:39:55;14.23;;;5.70;;
61391;SDS011;47261;52.892;5.738;2023-05-31T09:42:23;15.33;;;6.00;;
61391;SDS011;47261;52.892;5.738;2023-05-31T09:44:50;15.75;;;5.32;;
61391;SDS011;47261;52.892;5.738;2023-05-31T10:15:04;11.93;;;4.67;;
61391;SDS011;47261;52.892;5.738;2023-05-31T10:17:37;9.10;;;3.10;;
61391;SDS011;47261;52.892;5.738;2023-05-31T10:20:08;8.25;;;3.05;;
61391;SDS011;47261;52.892;5.738;2023-05-31T10:22:36;10.45;;;3.35;;
61391;SDS011;47261;52.892;5.738;2023-05-31T10:28:07;9.47;;;3.73;;
61391;SDS011;47261;52.892;5.738;2023-05-31T10:30:38;8.73;;;3.55;;
61391;SDS011;47261;52.892;5.738;2023-05-31T10:33:06;9.18;;;3.75;;
61391;SDS011;47261;52.892;5.738;2023-05-31T10:35:33;10.98;;;3.97;;
61391;SDS011;47261;52.892;5.738;2023-05-31T10:37:59;9.23;;;3.38;;
61391;SDS011;47261;52.892;5.738;2023-05-31T10:43:19;13.40;;;4.30;;
61391;SDS011;47261;52.892;5.738;2023-05-31T10:46:10;10.25;;;4.07;;
61391;SDS011;47261;52.892;5.738;2023-05-31T10:48:45;13.02;;;4.68;;
61391;SDS011;47261;52.892;5.738;2023-05-31T10:51:17;13.40;;;4.30;;
61391;SDS011;47261;52.892;5.738;2023-05-31T10:53:43;12.13;;;4.30;;
61391;SDS011;47261;52.892;5.738;2023-05-31T10:56:13;12.35;;;3.33;;
61391;SDS011;47261;52.892;5.738;2023-05-31T10:58:40;11.18;;;4.00;;
61391;SDS011;47261;52.892;5.738;2023-05-31T11:01:13;10.85;;;3.63;;
61391;SDS011;47261;52.892;5.738;2023-05-31T11:03:44;12.33;;;4.53;;
61391;SDS011;47261;52.892;5.738;2023-05-31T11:06:12;12.90;;;4.32;;
61391;SDS011;47261;52.892;5.738;2023-05-31T11:19:25;12.00;;;4.57;;
61391;SDS011;47261;52.892;5.738;2023-05-31T11:21:56;11.73;;;4.15;;
61391;SDS011;47261;52.892;5.738;2023-05-31T11:24:31;14.00;;;4.73;;
61391;SDS011;47261;52.892;5.738;2023-05-31T11:27:10;12.00;;;4.25;;
61391;SDS011;47261;52.892;5.738;2023-05-31T11:32:12;13.10;;;4.05;;
61391;SDS011;47261;52.892;5.738;2023-05-31T11:37:28;14.47;;;4.47;;
61391;SDS011;47261;52.892;5.738;2023-05-31T11:39:56;14.77;;;4.78;;
61391;SDS011;47261;52.892;5.738;2023-05-31T11:42:25;15.38;;;4.22;;
61391;SDS011;47261;52.892;5.738;2023-05-31T11:44:55;12.02;;;3.78;;
61391;SDS011;47261;52.892;5.738;2023-05-31T11:48:10;14.82;;;5.60;;
61391;SDS011;47261;52.892;5.738;2023-05-31T11:50:07;11.00;;;4.43;;
61391;SDS011;47261;52.892;5.738;2023-05-31T11:52:38;9.00;;;4.72;;
61391;SDS011;47261;52.892;5.738;2023-05-31T11:55:05;15.43;;;5.35;;
61391;SDS011;47261;52.892;5.738;2023-05-31T11:57:39;13.95;;;5.03;;
61391;SDS011;47261;52.892;5.738;2023-05-31T12:00:09;11.60;;;4.72;;
61391;SDS011;47261;52.892;5.738;2023-05-31T12:02:41;11.57;;;4.80;;
61391;SDS011;47261;52.892;5.738;2023-05-31T12:05:14;12.35;;;4.55;;
61391;SDS011;47261;52.892;5.738;2023-05-31T12:07:40;8.88;;;4.53;;
61391;SDS011;47261;52.892;5.738;2023-05-31T12:10:07;10.38;;;4.30;;
61391;SDS011;47261;52.892;5.738;2023-05-31T12:12:34;10.75;;;5.13;;
61391;SDS011;47261;52.892;5.738;2023-05-31T12:15:00;10.07;;;4.83;;
61391;SDS011;47261;52.892;5.738;2023-05-31T12:17:32;10.98;;;4.20;;
61391;SDS011;47261;52.892;5.738;2023-05-31T12:19:59;12.77;;;5.50;;
61391;SDS011;47261;52.892;5.738;2023-05-31T12:22:26;12.35;;;5.70;;
61391;SDS011;47261;52.892;5.738;2023-05-31T12:24:52;11.32;;;4.10;;
61391;SDS011;47261;52.892;5.738;2023-05-31T12:27:20;11.60;;;5.27;;
61391;SDS011;47261;52.892;5.738;2023-05-31T12:29:57;11.45;;;4.35;;
61391;SDS011;47261;52.892;5.738;2023-05-31T12:32:23;9.68;;;4.22;;
61391;SDS011;47261;52.892;5.738;2023-05-31T12:35:03;13.38;;;5.70;;
61391;SDS011;47261;52.892;5.738;2023-05-31T12:37:32;18.35;;;5.70;;
61391;SDS011;47261;52.892;5.738;2023-05-31T12:40:12;13.03;;;5.33;;
61391;SDS011;47261;52.892;5.738;2023-05-31T12:42:44;12.80;;;4.47;;
61391;SDS011;47261;52.892;5.738;2023-05-31T12:45:10;10.65;;;4.50;;
61391;SDS011;47261;52.892;5.738;2023-05-31T12:47:36;10.87;;;4.90;;
61391;SDS011;47261;52.892;5.738;2023-05-31T12:50:05;10.23;;;5.15;;
61391;SDS011;47261;52.892;5.738;2023-05-31T12:52:33;10.88;;;5.10;;
61391;SDS011;47261;52.892;5.738;2023-05-31T12:55:00;12.30;;;4.85;;
61391;SDS011;47261;52.892;5.738;2023-05-31T12:57:26;13.93;;;5.93;;
61391;SDS011;47261;52.892;5.738;2023-05-31T13:00:05;13.25;;;5.38;;
61391;SDS011;47261;52.892;5.738;2023-05-31T13:02:34;14.95;;;5.63;;
61391;SDS011;47261;52.892;5.738;2023-05-31T13:05:01;12.13;;;4.63;;
61391;SDS011;47261;52.892;5.738;2023-05-31T13:07:27;12.60;;;4.70;;
61391;SDS011;47261;52.892;5.738;2023-05-31T13:09:53;8.77;;;3.87;;
61391;SDS011;47261;52.892;5.738;2023-05-31T13:12:19;13.23;;;5.00;;
61391;SDS011;47261;52.892;5.738;2023-05-31T13:14:46;16.70;;;4.60;;
61391;SDS011;47261;52.892;5.738;2023-05-31T13:17:12;10.27;;;4.07;;
61391;SDS011;47261;52.892;5.738;2023-05-31T13:19:39;10.13;;;4.88;;
61391;SDS011;47261;52.892;5.738;2023-05-31T13:22:05;10.25;;;3.60;;
61391;SDS011;47261;52.892;5.738;2023-05-31T13:24:31;9.80;;;3.80;;
61391;SDS011;47261;52.892;5.738;2023-05-31T13:26:57;10.43;;;4.30;;
61391;SDS011;47261;52.892;5.738;2023-05-31T13:29:23;11.63;;;4.93;;
61391;SDS011;47261;52.892;5.738;2023-05-31T13:31:49;10.93;;;5.57;;
61391;SDS011;47261;52.892;5.738;2023-05-31T13:34:15;12.57;;;5.20;;
61391;SDS011;47261;52.892;5.738;2023-05-31T13:36:41;13.43;;;5.67;;
61391;SDS011;47261;52.892;5.738;2023-05-31T13:39:06;9.82;;;3.47;;
61391;SDS011;47261;52.892;5.738;2023-05-31T13:41:32;13.57;;;4.80;;
61391;SDS011;47261;52.892;5.738;2023-05-31T13:43:58;13.38;;;5.68;;
61391;SDS011;47261;52.892;5.738;2023-05-31T13:46:24;10.37;;;4.80;;
61391;SDS011;47261;52.892;5.738;2023-05-31T13:48:51;12.63;;;6.00;;
61391;SDS011;47261;52.892;5.738;2023-05-31T13:51:17;13.02;;;5.35;;
61391;SDS011;47261;52.892;5.738;2023-05-31T13:53:43;12.87;;;5.53;;
61391;SDS011;47261;52.892;5.738;2023-05-31T13:56:09;12.32;;;5.65;;
61391;SDS011;47261;52.892;5.738;2023-05-31T13:58:36;22.00;;;6.03;;
61391;SDS011;47261;52.892;5.738;2023-05-31T14:01:05;13.87;;;5.47;;
61391;SDS011;47261;52.892;5.738;2023-05-31T14:03:34;11.75;;;5.95;;
61391;SDS011;47261;52.892;5.738;2023-05-31T14:06:00;11.77;;;5.38;;
61391;SDS011;47261;52.892;5.738;2023-05-31T14:08:26;11.65;;;5.97;;
61391;SDS011;47261;52.892;5.738;2023-05-31T14:10:52;14.00;;;5.87;;
61391;SDS011;47261;52.892;5.738;2023-05-31T14:13:18;12.27;;;5.85;;
61391;SDS011;47261;52.892;5.738;2023-05-31T14:15:44;10.77;;;4.73;;
61391;SDS011;47261;52.892;5.738;2023-05-31T14:18:09;17.40;;;7.07;;
61391;SDS011;47261;52.892;5.738;2023-05-31T14:20:35;15.80;;;6.55;;
61391;SDS011;47261;52.892;5.738;2023-05-31T14:23:04;13.87;;;5.93;;
61391;SDS011;47261;52.892;5.738;2023-05-31T14:25:30;12.82;;;5.60;;
61391;SDS011;47261;52.892;5.738;2023-05-31T14:27:56;15.23;;;5.72;;
61391;SDS011;47261;52.892;5.738;2023-05-31T14:30:23;15.32;;;5.10;;
61391;SDS011;47261;52.892;5.738;2023-05-31T14:32:50;12.57;;;5.20;;
61391;SDS011;47261;52.892;5.738;2023-05-31T14:35:16;12.50;;;5.50;;
61391;SDS011;47261;52.892;5.738;2023-05-31T14:37:42;15.68;;;5.10;;
61391;SDS011;47261;52.892;5.738;2023-05-31T14:40:08;12.53;;;4.80;;
61391;SDS011;47261;52.892;5.738;2023-05-31T14:42:34;11.65;;;4.25;;
61391;SDS011;47261;52.892;5.738;2023-05-31T14:44:59;11.00;;;5.03;;
61391;SDS011;47261;52.892;5.738;2023-05-31T14:47:28;12.65;;;5.55;;
61391;SDS011;47261;52.892;5.738;2023-05-31T14:49:58;9.93;;;4.10;;
61391;SDS011;47261;52.892;5.738;2023-05-31T14:52:24;14.20;;;5.40;;
61391;SDS011;47261;52.892;5.738;2023-05-31T14:54:49;10.60;;;4.00;;
61391;SDS011;47261;52.892;5.738;2023-05-31T14:57:15;12.67;;;5.07;;
61391;SDS011;47261;52.892;5.738;2023-05-31T14:59:41;14.07;;;5.10;;
61391;SDS011;47261;52.892;5.738;2023-05-31T15:02:06;11.57;;;4.50;;
61391;SDS011;47261;52.892;5.738;2023-05-31T15:04:33;14.30;;;5.75;;
61391;SDS011;47261;52.892;5.738;2023-05-31T15:06:59;12.37;;;4.50;;
61391;SDS011;47261;52.892;5.738;2023-05-31T15:09:24;14.55;;;5.00;;
61391;SDS011;47261;52.892;5.738;2023-05-31T15:11:50;12.50;;;4.63;;
61391;SDS011;47261;52.892;5.738;2023-05-31T15:14:16;15.18;;;5.43;;
61391;SDS011;47261;52.892;5.738;2023-05-31T15:16:42;7.47;;;2.77;;
61391;SDS011;47261;52.892;5.738;2023-05-31T15:19:08;12.30;;;3.75;;
61391;SDS011;47261;52.892;5.738;2023-05-31T15:21:33;14.60;;;4.93;;
61391;SDS011;47261;52.892;5.738;2023-05-31T15:24:00;13.50;;;4.23;;
61391;SDS011;47261;52.892;5.738;2023-05-31T15:26:26;12.63;;;4.57;;
61391;SDS011;47261;52.892;5.738;2023-05-31T15:28:52;9.95;;;3.95;;
61391;SDS011;47261;52.892;5.738;2023-05-31T15:31:18;8.43;;;3.22;;
61391;SDS011;47261;52.892;5.738;2023-05-31T15:33:45;11.27;;;4.17;;